createdAt,value
2019-03-21T00:02:18.900Z,4.23
2019-03-21T00:04:51.421Z,4.20
2019-03-21T00:07:21.047Z,4.30
2019-03-21T00:10:13.457Z,3.77
2019-03-21T00:12:43.078Z,4.27
2019-03-21T00:15:23.338Z,4.10
2019-03-21T00:17:57.697Z,4.60
2019-03-21T00:20:27.312Z,3.97
2019-03-21T00:22:56.933Z,3.87
2019-03-21T00:25:26.581Z,3.67
2019-03-21T00:27:56.202Z,3.87
2019-03-21T00:30:26.750Z,3.77
2019-03-21T00:32:56.370Z,3.97
2019-03-21T00:35:25.975Z,4.17
2019-03-21T00:37:55.597Z,4.10
2019-03-21T00:40:30.472Z,4.00
2019-03-21T00:43:01.870Z,4.00
2019-03-21T00:45:31.483Z,4.23
2019-03-21T00:48:01.769Z,4.00
2019-03-21T00:50:31.405Z,3.80
2019-03-21T00:53:01.024Z,4.47
2019-03-21T00:55:31.457Z,4.30
2019-03-21T00:58:01.176Z,4.10
2019-03-21T01:00:34.252Z,4.00
2019-03-21T01:03:04.021Z,4.60
2019-03-21T01:05:33.616Z,4.80
2019-03-21T01:08:03.228Z,4.70
2019-03-21T01:10:32.857Z,4.43
2019-03-21T01:13:02.467Z,4.43
2019-03-21T01:15:32.098Z,4.33
2019-03-21T01:18:01.698Z,5.03
2019-03-21T01:20:31.325Z,4.80
2019-03-21T01:23:00.921Z,5.03
2019-03-21T01:25:33.968Z,4.93
2019-03-21T01:28:03.611Z,4.40
2019-03-21T01:30:33.189Z,3.90
2019-03-21T01:33:02.790Z,4.90
2019-03-21T01:35:32.412Z,4.50
2019-03-21T01:38:02.020Z,4.20
2019-03-21T01:40:32.420Z,4.30
2019-03-21T01:43:02.030Z,4.30
2019-03-21T01:45:31.844Z,4.23
2019-03-21T01:48:01.437Z,5.33
2019-03-21T01:50:31.307Z,4.23
2019-03-21T01:53:00.903Z,4.13
2019-03-21T01:55:30.517Z,4.73
2019-03-21T01:58:00.114Z,4.33
2019-03-21T02:00:32.201Z,4.87
2019-03-21T02:03:01.819Z,5.00
2019-03-21T02:05:31.440Z,4.73
2019-03-21T02:08:01.041Z,4.70
2019-03-21T02:10:30.674Z,5.40
2019-03-21T02:13:00.269Z,5.23
2019-03-21T02:15:29.878Z,4.83
2019-03-21T02:17:59.498Z,4.60
2019-03-21T02:20:29.099Z,4.50
2019-03-21T02:22:58.720Z,4.43
2019-03-21T02:25:29.265Z,4.27
2019-03-21T02:27:58.911Z,5.17
2019-03-21T02:30:30.998Z,4.40
2019-03-21T02:33:06.810Z,4.73
2019-03-21T02:35:36.414Z,4.43
2019-03-21T02:38:06.031Z,3.97
2019-03-21T02:40:35.627Z,4.10
2019-03-21T02:43:05.262Z,4.13
2019-03-21T02:45:34.860Z,4.73
2019-03-21T02:48:04.487Z,4.57
2019-03-21T02:50:34.367Z,4.43
2019-03-21T02:53:04.233Z,4.97
2019-03-21T02:55:33.871Z,3.80
2019-03-21T02:58:03.501Z,4.03
2019-03-21T03:00:33.694Z,4.40
2019-03-21T03:03:03.385Z,4.10
2019-03-21T03:05:32.989Z,4.10
2019-03-21T03:08:02.718Z,3.80
2019-03-21T03:10:38.131Z,3.60
2019-03-21T03:13:07.785Z,3.60
2019-03-21T03:15:37.357Z,3.90
2019-03-21T03:18:07.009Z,4.17
2019-03-21T03:20:36.608Z,3.83
2019-03-21T03:23:06.215Z,3.87
2019-03-21T03:25:36.117Z,4.00
2019-03-21T03:28:17.817Z,3.53
2019-03-21T03:30:47.438Z,3.53
2019-03-21T03:33:17.065Z,4.00
2019-03-21T03:35:47.711Z,4.73
2019-03-21T03:38:17.314Z,3.97
2019-03-21T03:40:49.365Z,3.43
2019-03-21T03:43:18.988Z,4.33
2019-03-21T03:45:48.582Z,4.27
2019-03-21T03:48:19.863Z,4.23
2019-03-21T03:50:49.552Z,4.30
2019-03-21T03:53:19.139Z,4.33
2019-03-21T03:55:49.907Z,4.20
2019-03-21T03:58:20.210Z,3.57
2019-03-21T04:00:49.963Z,4.07
2019-03-21T04:03:19.574Z,3.60
2019-03-21T04:05:49.224Z,4.30
2019-03-21T04:08:19.041Z,4.07
2019-03-21T04:10:48.695Z,4.40
2019-03-21T04:13:18.302Z,4.87
2019-03-21T04:15:53.096Z,4.57
2019-03-21T04:18:19.515Z,3.90
2019-03-21T04:20:49.513Z,4.63
2019-03-21T04:23:19.669Z,4.10
2019-03-21T04:25:58.234Z,3.83
2019-03-21T04:28:27.842Z,4.13
2019-03-21T04:30:57.450Z,4.13
2019-03-21T04:33:27.089Z,3.97
2019-03-21T04:35:56.692Z,4.07
2019-03-21T04:38:26.345Z,4.23
2019-03-21T04:40:55.944Z,4.37
2019-03-21T04:43:25.572Z,5.17
2019-03-21T04:46:03.277Z,4.30
2019-03-21T04:48:26.528Z,4.90
2019-03-21T04:50:56.124Z,4.23
2019-03-21T04:53:25.750Z,4.70
2019-03-21T04:55:55.355Z,4.53
2019-03-21T04:58:24.976Z,5.03
2019-03-21T05:00:55.022Z,5.17
2019-03-21T05:03:24.775Z,4.70
2019-03-21T05:05:54.375Z,5.13
2019-03-21T05:08:23.997Z,4.53
2019-03-21T05:10:53.597Z,4.60
2019-03-21T05:13:23.217Z,5.27
2019-03-21T05:15:52.852Z,4.70
2019-03-21T05:18:28.648Z,5.23
2019-03-21T05:20:58.252Z,5.40
2019-03-21T05:23:27.882Z,4.90
2019-03-21T05:25:57.500Z,4.90
2019-03-21T05:28:27.122Z,4.90
2019-03-21T05:31:02.948Z,6.17
2019-03-21T05:33:32.687Z,5.00
2019-03-21T05:36:02.318Z,5.93
2019-03-21T05:38:32.612Z,7.73
2019-03-21T05:41:02.222Z,6.97
2019-03-21T05:43:38.642Z,6.77
2019-03-21T05:46:09.628Z,6.67
2019-03-21T05:48:39.254Z,5.60
2019-03-21T05:51:08.848Z,6.07
2019-03-21T05:53:38.462Z,6.10
2019-03-21T05:56:08.388Z,5.73
2019-03-21T05:58:38.007Z,5.00
2019-03-21T06:01:07.650Z,5.10
2019-03-21T06:03:46.829Z,4.80
2019-03-21T06:06:29.363Z,5.20
2019-03-21T06:08:58.977Z,5.30
2019-03-21T06:11:28.795Z,5.33
2019-03-21T06:13:58.740Z,5.30
2019-03-21T06:16:37.252Z,4.80
2019-03-21T06:19:06.944Z,4.53
2019-03-21T06:22:09.178Z,4.40
2019-03-21T06:24:53.495Z,4.80
2019-03-21T06:27:28.248Z,4.10
2019-03-21T06:29:58.186Z,3.77
2019-03-21T06:32:28.136Z,4.03
2019-03-21T06:34:58.061Z,4.63
2019-03-21T06:37:28.916Z,4.17
2019-03-21T06:39:58.721Z,5.20
2019-03-21T06:42:28.327Z,4.07
2019-03-21T06:44:59.146Z,4.07
2019-03-21T06:47:28.749Z,3.50
2019-03-21T06:49:58.366Z,3.77
2019-03-21T06:52:27.970Z,3.43
2019-03-21T06:54:59.768Z,2.87
2019-03-21T06:57:28.921Z,2.63
2019-03-21T06:59:58.554Z,3.10
2019-03-21T07:02:28.192Z,3.63
2019-03-21T07:04:57.828Z,4.10
2019-03-21T07:07:27.428Z,3.73
2019-03-21T07:09:57.068Z,4.67
2019-03-21T07:12:26.665Z,4.30
2019-03-21T07:14:56.324Z,4.23
2019-03-21T07:17:25.930Z,4.00
2019-03-21T07:19:55.554Z,3.63
2019-03-21T07:22:25.157Z,3.50
2019-03-21T07:24:54.758Z,4.00
2019-03-21T07:27:24.386Z,3.40
2019-03-21T07:29:53.992Z,3.40
2019-03-21T07:32:33.121Z,3.73
2019-03-21T07:34:54.961Z,3.50
2019-03-21T07:37:24.591Z,4.07
2019-03-21T07:39:54.208Z,4.55
2019-03-21T07:42:23.835Z,4.20
2019-03-21T07:44:53.449Z,4.90
2019-03-21T07:47:23.061Z,6.17
2019-03-21T07:49:52.659Z,4.70
2019-03-21T07:52:22.293Z,3.60
2019-03-21T07:54:51.894Z,3.05
2019-03-21T07:57:21.522Z,3.58
2019-03-21T07:59:51.128Z,3.17
2019-03-21T08:02:20.884Z,3.17
2019-03-21T08:04:50.492Z,2.77
2019-03-21T08:07:20.114Z,3.03
2019-03-21T08:09:50.851Z,3.30
2019-03-21T08:12:20.522Z,2.87
2019-03-21T08:14:50.133Z,2.97
2019-03-21T08:17:19.791Z,2.17
2019-03-21T08:19:49.386Z,2.87
2019-03-21T08:22:19.013Z,3.05
2019-03-21T08:24:48.620Z,2.92
2019-03-21T08:27:18.243Z,2.80
2019-03-21T08:29:47.854Z,2.50
2019-03-21T08:32:17.479Z,2.43
2019-03-21T08:34:47.096Z,2.63
2019-03-21T08:37:16.715Z,2.80
2019-03-21T08:39:46.326Z,2.90
2019-03-21T08:42:15.962Z,2.60
2019-03-21T08:44:45.573Z,2.50
2019-03-21T08:47:15.206Z,2.60
2019-03-21T08:49:44.819Z,2.70
2019-03-21T08:52:14.420Z,2.53
2019-03-21T08:54:44.045Z,2.13
2019-03-21T08:57:13.675Z,2.90
2019-03-21T08:59:43.310Z,2.50
2019-03-21T09:02:12.934Z,2.50
2019-03-21T09:04:42.560Z,2.40
2019-03-21T09:07:12.166Z,2.47
2019-03-21T09:09:41.794Z,2.70
2019-03-21T09:12:11.407Z,2.70
2019-03-21T09:14:41.035Z,2.63
2019-03-21T09:17:10.651Z,2.37
2019-03-21T09:19:40.278Z,2.20
2019-03-21T09:22:09.883Z,2.77
2019-03-21T09:24:39.518Z,2.50
2019-03-21T09:27:09.121Z,2.70
2019-03-21T09:29:38.746Z,2.67
2019-03-21T09:32:08.377Z,3.05
2019-03-21T09:34:37.991Z,2.83
2019-03-21T09:37:07.603Z,3.20
2019-03-21T09:39:37.224Z,2.83
2019-03-21T09:42:06.827Z,2.92
2019-03-21T09:44:36.455Z,2.87
2019-03-21T09:47:06.061Z,3.27
2019-03-21T09:49:35.689Z,3.40
2019-03-21T09:52:05.293Z,3.17
2019-03-21T09:54:34.929Z,2.90
2019-03-21T09:57:04.634Z,3.27
2019-03-21T09:59:34.279Z,3.20
2019-03-21T10:02:03.902Z,3.10
2019-03-21T10:04:33.544Z,3.15
2019-03-21T10:07:03.145Z,3.10
2019-03-21T10:09:32.781Z,2.80
2019-03-21T10:12:02.381Z,2.87
2019-03-21T10:14:31.992Z,2.70
2019-03-21T10:17:01.619Z,2.90
2019-03-21T10:19:31.230Z,2.83
2019-03-21T10:22:00.857Z,3.00
2019-03-21T10:24:30.475Z,2.45
2019-03-21T10:27:00.086Z,3.30
2019-03-21T10:29:29.698Z,3.12
2019-03-21T10:31:59.349Z,3.12
2019-03-21T10:34:28.936Z,2.65
2019-03-21T10:36:58.565Z,3.08
2019-03-21T10:39:28.162Z,2.80
2019-03-21T10:41:57.790Z,2.80
2019-03-21T10:44:27.398Z,2.85
2019-03-21T10:46:57.020Z,2.65
2019-03-21T10:49:26.626Z,3.05
2019-03-21T10:51:56.266Z,2.70
2019-03-21T10:54:25.866Z,2.37
2019-03-21T10:56:55.506Z,2.90
2019-03-21T10:59:25.122Z,2.98
2019-03-21T11:01:54.763Z,2.85
2019-03-21T11:04:24.364Z,2.60
2019-03-21T11:06:59.939Z,2.77
2019-03-21T11:09:30.045Z,2.92
2019-03-21T11:11:59.842Z,3.15
2019-03-21T11:14:29.488Z,3.12
2019-03-21T11:16:59.145Z,3.00
2019-03-21T11:19:28.777Z,2.90
2019-03-21T11:22:06.229Z,2.83
2019-03-21T11:24:29.727Z,2.60
2019-03-21T11:26:59.361Z,2.90
2019-03-21T11:29:28.966Z,2.60
2019-03-21T11:31:58.578Z,2.45
2019-03-21T11:34:28.206Z,2.70
2019-03-21T11:36:57.816Z,2.90
2019-03-21T11:39:27.442Z,2.65
2019-03-21T11:41:57.043Z,2.98
2019-03-21T11:44:26.681Z,2.70
2019-03-21T11:46:56.300Z,2.67
2019-03-21T11:49:25.921Z,2.92
2019-03-21T11:51:55.537Z,3.60
2019-03-21T11:54:25.176Z,3.30
2019-03-21T11:56:54.768Z,3.30
2019-03-21T11:59:24.390Z,3.35
2019-03-21T12:01:54.040Z,3.60
2019-03-21T12:04:23.673Z,3.70
2019-03-21T12:06:53.294Z,3.17
2019-03-21T12:09:22.917Z,3.70
2019-03-21T12:11:53.181Z,3.67
2019-03-21T12:14:22.820Z,3.17
2019-03-21T12:16:52.430Z,3.40
2019-03-21T12:19:22.060Z,3.20
2019-03-21T12:21:51.667Z,3.40
2019-03-21T12:24:21.290Z,3.08
2019-03-21T12:26:50.910Z,3.02
2019-03-21T12:29:20.532Z,3.55
2019-03-21T12:31:50.133Z,3.45
2019-03-21T12:34:19.754Z,3.60
2019-03-21T12:36:49.366Z,3.85
2019-03-21T12:39:18.985Z,3.95
2019-03-21T12:41:48.593Z,4.08
2019-03-21T12:44:18.247Z,3.80
2019-03-21T12:46:47.834Z,3.72
2019-03-21T12:49:17.465Z,4.25
2019-03-21T12:51:47.108Z,4.40
2019-03-21T12:54:16.697Z,4.15
2019-03-21T12:56:46.358Z,3.90
2019-03-21T12:59:16.005Z,4.33
2019-03-21T13:01:45.639Z,3.72
2019-03-21T13:04:15.268Z,4.25
2019-03-21T13:06:44.875Z,4.28
2019-03-21T13:09:14.501Z,4.00
2019-03-21T13:11:44.107Z,4.00
2019-03-21T13:14:13.730Z,3.92
2019-03-21T13:16:43.336Z,4.03
2019-03-21T13:19:12.967Z,3.90
2019-03-21T13:21:42.587Z,4.08
2019-03-21T13:24:12.223Z,3.87
2019-03-21T13:26:41.826Z,4.17
2019-03-21T13:29:11.464Z,3.98
2019-03-21T13:31:41.071Z,4.30
2019-03-21T13:34:10.697Z,4.10
2019-03-21T13:36:40.333Z,3.67
2019-03-21T13:39:09.979Z,4.00
2019-03-21T13:41:39.577Z,3.77
2019-03-21T13:44:09.202Z,3.70
2019-03-21T13:46:38.820Z,3.70
2019-03-21T13:49:08.450Z,3.92
2019-03-21T13:51:38.054Z,4.05
2019-03-21T13:54:08.726Z,4.30
2019-03-21T13:56:38.591Z,4.00
2019-03-21T13:59:08.208Z,3.95
2019-03-21T14:01:37.839Z,3.67
2019-03-21T14:04:07.446Z,3.77
2019-03-21T14:06:37.078Z,3.70
2019-03-21T14:09:08.284Z,3.55
2019-03-21T14:11:37.931Z,3.77
2019-03-21T14:14:07.497Z,3.65
2019-03-21T14:16:37.131Z,4.22
2019-03-21T14:19:06.735Z,3.65
2019-03-21T14:21:36.367Z,4.05
2019-03-21T14:24:06.015Z,3.55
2019-03-21T14:26:35.666Z,3.70
2019-03-21T14:29:12.536Z,3.40
2019-03-21T14:31:36.590Z,3.85
2019-03-21T14:34:06.204Z,3.77
2019-03-21T14:36:35.830Z,3.45
2019-03-21T14:39:07.361Z,3.52
2019-03-21T14:41:37.017Z,3.45
2019-03-21T14:44:07.164Z,3.47
2019-03-21T14:46:36.836Z,3.30
2019-03-21T14:49:06.450Z,3.55
2019-03-21T14:51:36.081Z,3.67
2019-03-21T14:54:05.721Z,3.25
2019-03-21T14:56:35.348Z,3.10
2019-03-21T14:59:04.964Z,3.45
2019-03-21T15:01:34.619Z,3.27
2019-03-21T15:04:04.236Z,3.35
2019-03-21T15:06:33.865Z,2.98
2019-03-21T15:09:03.659Z,3.15
2019-03-21T15:11:33.331Z,2.92
2019-03-21T15:14:02.890Z,3.05
2019-03-21T15:16:32.523Z,2.83
2019-03-21T15:19:02.131Z,2.55
2019-03-21T15:21:31.763Z,2.80
2019-03-21T15:24:01.371Z,2.90
2019-03-21T15:26:30.999Z,2.77
2019-03-21T15:29:00.615Z,3.10
2019-03-21T15:31:30.242Z,2.77
2019-03-21T15:33:59.863Z,2.90
2019-03-21T15:36:29.492Z,2.60
2019-03-21T15:38:59.105Z,3.30
2019-03-21T15:41:28.730Z,2.20
2019-03-21T15:43:58.335Z,2.20
2019-03-21T15:46:27.962Z,2.22
2019-03-21T15:48:57.576Z,2.00
2019-03-21T15:51:27.210Z,2.80
2019-03-21T15:53:56.832Z,2.30
2019-03-21T15:56:26.452Z,1.87
2019-03-21T15:58:56.054Z,2.47
2019-03-21T16:01:25.694Z,2.98
2019-03-21T16:03:55.308Z,2.47
2019-03-21T16:06:24.931Z,3.33
2019-03-21T16:08:54.546Z,2.30
2019-03-21T16:11:24.179Z,2.75
2019-03-21T16:13:53.779Z,2.95
2019-03-21T16:16:23.422Z,3.20
2019-03-21T16:18:53.015Z,3.10
2019-03-21T16:21:22.654Z,2.50
2019-03-21T16:24:04.170Z,3.07
2019-03-21T16:26:23.686Z,2.60
2019-03-21T16:28:53.301Z,3.00
2019-03-21T16:31:23.309Z,2.57
2019-03-21T16:33:52.930Z,2.83
2019-03-21T16:36:22.533Z,2.87
2019-03-21T16:38:52.150Z,2.87
2019-03-21T16:41:21.746Z,2.80
2019-03-21T16:43:51.378Z,2.87
2019-03-21T16:46:20.990Z,2.77
2019-03-21T16:48:50.622Z,2.60
2019-03-21T16:51:20.234Z,2.97
2019-03-21T16:53:49.872Z,2.67
2019-03-21T16:56:19.483Z,2.80
2019-03-21T16:58:49.109Z,2.77
2019-03-21T17:01:18.724Z,2.33
2019-03-21T17:03:48.367Z,2.67
2019-03-21T17:06:17.982Z,2.60
2019-03-21T17:08:47.614Z,3.60
2019-03-21T17:11:17.250Z,4.20
2019-03-21T17:13:46.864Z,3.60
2019-03-21T17:16:16.473Z,2.40
2019-03-21T17:18:46.116Z,2.97
2019-03-21T17:21:15.734Z,2.60
2019-03-21T17:23:45.383Z,2.90
2019-03-21T17:26:16.031Z,2.93
2019-03-21T17:28:45.686Z,2.80
2019-03-21T17:31:15.311Z,2.57
2019-03-21T17:33:44.940Z,2.53
2019-03-21T17:36:14.562Z,2.67
2019-03-21T17:38:44.211Z,3.23
2019-03-21T17:41:14.192Z,3.30
2019-03-21T17:43:43.832Z,2.83
2019-03-21T17:46:13.451Z,3.10
2019-03-21T17:48:43.094Z,2.50
2019-03-21T17:51:12.702Z,2.07
2019-03-21T17:53:42.344Z,2.30
2019-03-21T17:56:11.939Z,2.40
2019-03-21T17:58:41.580Z,1.90
2019-03-21T18:01:11.191Z,2.10
2019-03-21T18:03:40.856Z,2.00
2019-03-21T18:06:10.467Z,1.93
2019-03-21T18:08:40.109Z,1.87
2019-03-21T18:11:09.727Z,2.00
2019-03-21T18:13:39.360Z,1.87
2019-03-21T18:16:08.969Z,1.60
2019-03-21T18:18:38.614Z,1.80
2019-03-21T18:21:08.215Z,2.00
2019-03-21T18:23:37.837Z,2.00
2019-03-21T18:26:07.435Z,2.00
2019-03-21T18:28:37.058Z,2.17
2019-03-21T18:31:06.657Z,2.30
2019-03-21T18:33:36.280Z,2.73
2019-03-21T18:36:05.895Z,1.90
2019-03-21T18:38:35.525Z,2.27
2019-03-21T18:41:05.425Z,1.93
2019-03-21T18:43:35.062Z,2.30
2019-03-21T18:46:04.730Z,2.00
2019-03-21T18:48:34.366Z,1.90
2019-03-21T18:51:03.982Z,2.07
2019-03-21T18:53:33.614Z,2.20
2019-03-21T18:56:03.238Z,2.10
2019-03-21T18:58:32.841Z,2.10
2019-03-21T19:01:02.490Z,2.20
2019-03-21T19:03:32.149Z,2.07
2019-03-21T19:06:01.761Z,2.40
2019-03-21T19:08:31.389Z,2.63
2019-03-21T19:11:00.998Z,2.00
2019-03-21T19:13:30.610Z,2.20
2019-03-21T19:16:00.478Z,1.73
2019-03-21T19:18:30.082Z,2.13
2019-03-21T19:20:59.719Z,2.50
2019-03-21T19:23:29.340Z,2.20
2019-03-21T19:25:58.962Z,2.20
2019-03-21T19:28:28.560Z,2.27
2019-03-21T19:30:58.181Z,2.30
2019-03-21T19:33:27.785Z,2.40
2019-03-21T19:35:57.909Z,2.47
2019-03-21T19:38:27.513Z,2.40
2019-03-21T19:40:57.149Z,2.47
2019-03-21T19:43:26.752Z,2.37
2019-03-21T19:45:56.449Z,2.60
2019-03-21T19:48:26.040Z,2.67
2019-03-21T19:50:55.661Z,2.60
2019-03-21T19:53:25.267Z,2.73
2019-03-21T19:55:55.030Z,2.60
2019-03-21T19:58:24.793Z,2.77
2019-03-21T20:00:54.564Z,2.17
2019-03-21T20:03:24.424Z,2.27
2019-03-21T20:06:00.193Z,2.40
2019-03-21T20:08:25.674Z,2.40
2019-03-21T20:10:55.282Z,2.10
2019-03-21T20:13:26.243Z,2.10
2019-03-21T20:15:55.836Z,2.60
2019-03-21T20:18:25.475Z,2.93
2019-03-21T20:20:55.375Z,2.23
2019-03-21T20:23:25.864Z,2.63
2019-03-21T20:25:55.966Z,2.37
2019-03-21T20:28:26.065Z,2.40
2019-03-21T20:30:55.755Z,2.50
2019-03-21T20:33:26.291Z,2.30
2019-03-21T20:35:56.089Z,2.10
2019-03-21T20:38:25.785Z,2.37
2019-03-21T20:40:55.766Z,2.40
2019-03-21T20:43:25.713Z,2.50
2019-03-21T20:45:55.659Z,2.40
2019-03-21T20:48:29.901Z,2.23
2019-03-21T20:51:00.099Z,2.23
2019-03-21T20:53:29.934Z,2.70
2019-03-21T20:56:00.240Z,2.77
2019-03-21T20:58:30.391Z,3.90
2019-03-21T21:01:00.439Z,3.50
2019-03-21T21:03:31.802Z,2.13
2019-03-21T21:06:01.562Z,2.07
2019-03-21T21:08:31.525Z,2.50
2019-03-21T21:11:01.471Z,2.23
2019-03-21T21:13:31.576Z,2.50
2019-03-21T21:16:01.434Z,2.30
2019-03-21T21:18:32.703Z,2.20
2019-03-21T21:21:02.313Z,1.90
2019-03-21T21:23:31.944Z,2.40
2019-03-21T21:26:05.855Z,3.20
2019-03-21T21:28:32.896Z,2.67
2019-03-21T21:31:02.498Z,2.30
2019-03-21T21:33:32.142Z,2.60
2019-03-21T21:36:01.747Z,2.40
2019-03-21T21:38:31.344Z,2.60
2019-03-21T21:41:00.972Z,2.73
2019-03-21T21:43:30.608Z,2.80
2019-03-21T21:46:00.210Z,2.23
2019-03-21T21:48:29.810Z,2.47
2019-03-21T21:50:59.425Z,2.93
2019-03-21T21:53:29.038Z,2.10
2019-03-21T21:55:58.654Z,2.70
2019-03-21T21:58:28.277Z,2.90
2019-03-21T22:00:57.909Z,2.53
2019-03-21T22:03:27.531Z,3.80
2019-03-21T22:05:57.169Z,2.93
2019-03-21T22:08:26.770Z,3.07
2019-03-21T22:10:56.406Z,3.00
2019-03-21T22:13:26.013Z,2.67
2019-03-21T22:15:55.629Z,2.97
2019-03-21T22:18:25.238Z,2.37
2019-03-21T22:20:54.857Z,2.67
2019-03-21T22:23:24.457Z,2.57
2019-03-21T22:25:54.078Z,2.87
2019-03-21T22:28:23.681Z,2.27
2019-03-21T22:30:53.316Z,2.40
2019-03-21T22:33:22.915Z,2.70
2019-03-21T22:35:52.537Z,2.60
2019-03-21T22:38:22.134Z,2.30
2019-03-21T22:40:51.763Z,2.67
2019-03-21T22:43:21.369Z,2.57
2019-03-21T22:45:50.989Z,2.80
2019-03-21T22:48:20.591Z,3.00
2019-03-21T22:50:50.228Z,8.10
2019-03-21T22:53:19.824Z,2.53
2019-03-21T22:55:49.445Z,2.70
2019-03-21T22:58:19.046Z,2.40
2019-03-21T23:00:50.025Z,2.97
2019-03-21T23:03:19.686Z,2.40
2019-03-21T23:05:49.292Z,2.80
2019-03-21T23:08:18.916Z,2.77
2019-03-21T23:10:48.520Z,2.40
2019-03-21T23:13:18.144Z,2.43
2019-03-21T23:15:47.744Z,2.43
2019-03-21T23:18:17.367Z,2.70
2019-03-21T23:20:46.962Z,2.40
2019-03-21T23:23:16.587Z,2.43
2019-03-21T23:25:46.190Z,2.63
2019-03-21T23:28:15.813Z,2.70
2019-03-21T23:30:45.409Z,2.70
2019-03-21T23:33:15.038Z,3.00
2019-03-21T23:35:44.654Z,3.70
2019-03-21T23:38:14.302Z,3.10
2019-03-21T23:40:43.971Z,2.90
2019-03-21T23:43:13.589Z,2.57
2019-03-21T23:45:43.193Z,2.87
2019-03-21T23:48:12.827Z,2.90
2019-03-21T23:50:42.420Z,2.63
2019-03-21T23:53:12.036Z,2.03
2019-03-21T23:55:41.639Z,2.50
2019-03-21T23:58:11.261Z,3.00
